»·PEaware :: N352QN KBFI-KPDX

N352QN :: KBFI-KPDX

FLIGHT INFORMATION

Flight Status: Arrived
Operator: Privately registered:
United States
More flights under this callsign
Pilot: Jacob H. (10561)
Aircraft: Unknown
(EPIC)
More flights by this aircraft type
Origin: KBFI Boeing Field/King Co Intl
United States
Destination: KPDX Portland Intl
United States
More flights between these airports :: More routes between these airports
Route: +CBAIN1 CBAIN BUWZO HELNS HELNS5
File this flight plan on PilotEdge
Remarks:
Altitude:
(Current/Filed)
18,000ft
Speed:
(Current/Filed)
320kts
Departed: 22-Dec-17 06:51 PM
Arrived: 22-Dec-17 07:28 PM
Distance/Time
Traveled:
117nm/0:37
Distance/Time
To Go:
Arrived

Flight Plot

Page will automatically refresh every two minutes.

Flight plan parsing failed; only flown route is shown


Map Options




Map Legend


Flown Route
Filed Route
Departure Airport
Arrival Airport
Navaid (VOR, NDB)
Fix

Horizontal Profiles

Position Reports

Time Latitude Longitude Heading Altitude Ground
Speed
22-Dec-17 18:22 47.529853 -122.297871 351 21ft 0kts
22-Dec-17 18:23 47.529853 -122.297871 351 21ft 0kts
22-Dec-17 18:24 47.529853 -122.297871 351 21ft 0kts
22-Dec-17 18:25 47.529853 -122.297871 351 21ft 0kts
22-Dec-17 18:26 47.529853 -122.297871 351 21ft 0kts
22-Dec-17 18:27 47.529853 -122.297871 351 21ft 0kts
22-Dec-17 18:28 47.529853 -122.297871 351 21ft 0kts
22-Dec-17 18:29 47.529853 -122.297871 351 21ft 0kts
22-Dec-17 18:30 47.529853 -122.297871 351 21ft 0kts
22-Dec-17 18:31 47.529853 -122.297871 351 21ft 0kts
22-Dec-17 18:32 47.529853 -122.297871 351 21ft 0kts
22-Dec-17 18:33 47.529853 -122.297871 351 21ft 0kts
22-Dec-17 18:34 47.529853 -122.297871 351 21ft 0kts
22-Dec-17 18:35 47.529853 -122.297871 351 21ft 0kts
22-Dec-17 18:36 47.529853 -122.297871 351 21ft 0kts
22-Dec-17 18:37 47.529853 -122.297871 351 21ft 0kts
22-Dec-17 18:38 47.529853 -122.297871 351 21ft 0kts
22-Dec-17 18:39 47.529853 -122.297871 351 21ft 0kts
22-Dec-17 18:40 47.529853 -122.297871 351 21ft 0kts
22-Dec-17 18:41 47.529853 -122.297871 351 21ft 0kts
22-Dec-17 18:42 47.529853 -122.297871 351 21ft 0kts
22-Dec-17 18:43 47.529853 -122.297871 351 21ft 0kts
22-Dec-17 18:44 47.529853 -122.297871 351 21ft 0kts
22-Dec-17 18:45 47.529853 -122.297871 351 21ft 0kts
22-Dec-17 18:46 47.529853 -122.297871 351 21ft 0kts
22-Dec-17 18:47 47.529853 -122.297871 351 21ft 0kts
22-Dec-17 18:48 47.529853 -122.297871 351 21ft 0kts
22-Dec-17 18:49 47.529853 -122.297871 351 21ft 0kts
22-Dec-17 18:50 47.529853 -122.297871 351 21ft 0kts
22-Dec-17 18:51 47.529913 -122.298143 236 20ft 0kts
22-Dec-17 18:52 47.529800 -122.298424 242 20ft 11kts
22-Dec-17 18:53 47.529463 -122.299404 241 17ft 0kts
22-Dec-17 18:54 47.529463 -122.299404 241 17ft 0kts
22-Dec-17 18:55 47.529463 -122.299404 241 17ft 0kts
22-Dec-17 18:56 47.529443 -122.299459 241 17ft 6kts
22-Dec-17 18:57 47.548222 -122.316480 329 1064ft 135kts
22-Dec-17 18:58 47.580386 -122.345008 329 1694ft 193kts
22-Dec-17 18:59 47.605075 -122.417368 245 2055ft 248kts
22-Dec-17 19:00 47.554950 -122.414896 141 5150ft 203kts
22-Dec-17 19:01 47.492088 -122.402389 175 4978ft 248kts
22-Dec-17 19:02 47.428947 -122.392779 173 6296ft 244kts
22-Dec-17 19:03 47.367803 -122.382218 174 9157ft 261kts
22-Dec-17 19:04 47.299610 -122.370083 179 11604ft 280kts
22-Dec-17 19:05 47.230002 -122.357911 183 13926ft 279kts
22-Dec-17 19:06 47.157117 -122.345292 185 15826ft 293kts
22-Dec-17 19:07 47.078970 -122.331694 186 17796ft 305kts
22-Dec-17 19:08 46.988734 -122.316141 184 17963ft 349kts
22-Dec-17 19:09 46.893625 -122.308834 192 17959ft 347kts
22-Dec-17 19:10 46.800549 -122.309635 192 17956ft 347kts
22-Dec-17 19:11 46.704715 -122.309703 191 18286ft 350kts
22-Dec-17 19:12 46.607733 -122.309703 191 18287ft 352kts
22-Dec-17 19:13 46.511072 -122.309696 191 18287ft 352kts
22-Dec-17 19:14 46.414224 -122.309768 191 17425ft 354kts
22-Dec-17 19:15 46.321797 -122.309966 189 15335ft 321kts
22-Dec-17 19:16 46.238538 -122.322933 208 13166ft 290kts
22-Dec-17 19:17 46.165138 -122.361468 209 11088ft 274kts
22-Dec-17 19:18 46.097283 -122.398658 208 10263ft 246kts
22-Dec-17 19:19 46.044313 -122.430280 216 10309ft 252kts
22-Dec-17 19:20 45.960147 -122.474959 209 10296ft 286kts
22-Dec-17 19:21 45.894116 -122.511322 207 8698ft 237kts
22-Dec-17 19:22 45.830140 -122.546722 200 6629ft 259kts
22-Dec-17 19:23 45.764068 -122.582810 202 4584ft 259kts
22-Dec-17 19:24 45.728639 -122.632759 276 4286ft 224kts
22-Dec-17 19:25 45.758038 -122.726293 295 4291ft 230kts
22-Dec-17 19:26 45.780686 -122.795300 292 4289ft 231kts
22-Dec-17 19:27 45.747019 -122.862679 214 3414ft 218kts
22-Dec-17 19:28 45.699245 -122.852412 145 3291ft 195kts
22-Dec-17 19:29 45.669857 -122.789183 118 3055ft 200kts
22-Dec-17 19:30 45.644352 -122.723199 118 2065ft 187kts
22-Dec-17 19:31 45.623437 -122.669300 118 1244ft 137kts
22-Dec-17 19:32 45.607266 -122.627679 118 611ft 122kts
22-Dec-17 19:33 45.591724 -122.587766 117 41ft 122kts
22-Dec-17 19:34 45.586233 -122.576432 208 33ft 0kts
22-Dec-17 19:35 45.586233 -122.576432 208 33ft 0kts
22-Dec-17 19:36 45.588019 -122.581528 295 33ft 0kts
22-Dec-17 19:37 45.588019 -122.581528 295 33ft 0kts
22-Dec-17 19:38 45.587647 -122.584502 120 33ft 0kts

Navigation Log

Ident Type
Flight plan parsing failed, navigation log unavailable